createdAt,value
2022-09-06T00:00:47.337Z,6.80
2022-09-06T00:01:56.532Z,8.40
2022-09-06T00:03:06.663Z,9.10
2022-09-06T00:04:16.120Z,9.10
2022-09-06T00:05:25.596Z,9.00
2022-09-06T00:06:31.627Z,7.70
2022-09-06T00:07:37.521Z,8.00
2022-09-06T00:08:44.420Z,6.90
2022-09-06T00:09:52.461Z,9.50
2022-09-06T00:11:03.522Z,7.90
2022-09-06T00:12:12.726Z,8.00
2022-09-06T00:13:23.024Z,8.50
2022-09-06T00:14:30.215Z,6.00
2022-09-06T00:15:38.779Z,8.80
2022-09-06T00:16:52.349Z,7.50
2022-09-06T00:18:04.283Z,7.40
2022-09-06T00:19:11.707Z,7.20
2022-09-06T00:20:18.042Z,6.30
2022-09-06T00:21:26.585Z,5.70
2022-09-06T00:22:34.723Z,7.30
2022-09-06T00:23:47.226Z,8.50
2022-09-06T00:24:54.958Z,6.90
2022-09-06T00:26:06.419Z,7.30
2022-09-06T00:27:14.899Z,6.50
2022-09-06T00:28:23.512Z,6.30
2022-09-06T00:29:33.815Z,7.70
2022-09-06T00:30:41.363Z,6.90
2022-09-06T00:31:47.716Z,9.00
2022-09-06T00:32:55.388Z,8.40
2022-09-06T00:34:04.434Z,7.20
2022-09-06T00:35:11.269Z,8.10
2022-09-06T00:36:18.015Z,7.90
2022-09-06T00:37:24.781Z,6.40
2022-09-06T00:38:30.844Z,9.90
2022-09-06T00:39:41.286Z,6.50
2022-09-06T00:40:49.844Z,9.70
2022-09-06T00:41:56.741Z,6.50
2022-09-06T00:43:03.028Z,7.10
2022-09-06T00:44:08.793Z,9.40
2022-09-06T00:45:14.776Z,5.80
2022-09-06T00:46:25.573Z,5.80
2022-09-06T00:47:32.229Z,6.60
2022-09-06T00:48:39.275Z,8.00
2022-09-06T00:49:51.219Z,6.10
2022-09-06T00:51:00.253Z,6.90
2022-09-06T00:52:07.656Z,7.10
2022-09-06T00:53:13.702Z,7.90
2022-09-06T00:54:19.618Z,7.10
2022-09-06T00:55:27.276Z,10.90
2022-09-06T00:56:34.678Z,8.30
2022-09-06T00:57:41.239Z,6.70
2022-09-06T00:58:48.892Z,7.00
2022-09-06T00:59:58.024Z,8.10
2022-09-06T01:01:05.162Z,6.10
2022-09-06T01:02:12.295Z,6.50
2022-09-06T01:03:19.788Z,7.50
2022-09-06T01:04:26.994Z,6.60
2022-09-06T01:06:02.682Z,9.10
2022-09-06T01:07:31.380Z,7.50
2022-09-06T01:08:59.291Z,8.30
2022-09-06T01:10:14.577Z,9.00
2022-09-06T01:11:21.180Z,7.00
2022-09-06T01:13:00.548Z,9.50
2022-09-06T01:14:16.036Z,7.80
2022-09-06T01:15:58.417Z,10.90
2022-09-06T01:17:13.020Z,9.80
2022-09-06T01:18:37.316Z,9.00
2022-09-06T01:19:51.000Z,8.20
2022-09-06T01:21:21.870Z,7.80
2022-09-06T01:22:36.959Z,7.40
2022-09-06T01:24:13.803Z,8.70
2022-09-06T01:25:23.613Z,8.90
2022-09-06T01:26:42.020Z,7.70
2022-09-06T01:28:19.654Z,10.60
2022-09-06T01:29:46.735Z,10.20
2022-09-06T01:31:19.844Z,9.80
2022-09-06T01:32:33.123Z,9.80
2022-09-06T01:34:09.706Z,10.20
2022-09-06T01:35:36.971Z,9.10
2022-09-06T01:37:09.421Z,11.10
2022-09-06T01:38:17.517Z,8.80
2022-09-06T01:39:30.623Z,9.80
2022-09-06T01:40:37.270Z,11.10
2022-09-06T01:41:43.472Z,9.40
2022-09-06T01:42:49.607Z,14.80
2022-09-06T01:43:55.948Z,8.30
2022-09-06T01:45:04.221Z,11.60
2022-09-06T01:46:12.790Z,9.30
2022-09-06T01:47:37.198Z,9.70
2022-09-06T01:48:56.305Z,10.00
2022-09-06T01:50:29.184Z,11.10
2022-09-06T01:51:56.408Z,6.90
2022-09-06T01:53:09.820Z,8.50
2022-09-06T01:54:23.778Z,9.50
2022-09-06T01:55:54.240Z,11.90
2022-09-06T01:57:37.245Z,9.90
2022-09-06T01:59:03.159Z,11.80
2022-09-06T02:00:20.497Z,9.40
2022-09-06T02:01:32.394Z,9.90
2022-09-06T02:03:02.033Z,12.10
2022-09-06T02:04:18.078Z,6.90
2022-09-06T02:05:54.777Z,11.00
2022-09-06T02:07:11.920Z,9.30
2022-09-06T02:08:30.277Z,9.30
2022-09-06T02:09:39.509Z,7.00
2022-09-06T02:11:13.382Z,10.20
2022-09-06T02:12:19.665Z,11.10
2022-09-06T02:13:25.969Z,10.50
2022-09-06T02:14:42.346Z,11.70
2022-09-06T02:15:53.919Z,13.00
2022-09-06T02:16:59.999Z,9.80
2022-09-06T02:18:14.726Z,9.10
2022-09-06T02:19:25.807Z,10.20
2022-09-06T02:20:32.203Z,10.70
2022-09-06T02:21:39.486Z,8.20
2022-09-06T02:22:46.747Z,8.70
2022-09-06T02:23:53.595Z,9.20
2022-09-06T02:25:00.620Z,8.40
2022-09-06T02:26:23.276Z,8.00
2022-09-06T02:27:31.130Z,9.50
2022-09-06T02:28:37.173Z,7.40
2022-09-06T02:29:43.553Z,9.20
2022-09-06T02:30:51.706Z,11.60
2022-09-06T02:32:11.896Z,7.00
2022-09-06T02:33:22.222Z,9.80
2022-09-06T02:34:28.246Z,7.80
2022-09-06T02:35:34.727Z,10.60
2022-09-06T02:36:40.773Z,8.90
2022-09-06T02:37:46.990Z,8.00
2022-09-06T02:38:53.017Z,10.90
2022-09-06T02:39:59.411Z,10.50
2022-09-06T02:41:05.679Z,9.40
2022-09-06T02:42:11.948Z,10.30
2022-09-06T02:43:17.630Z,10.40
2022-09-06T02:44:23.916Z,8.20
2022-09-06T02:45:29.904Z,12.20
2022-09-06T02:46:36.291Z,8.90
2022-09-06T02:47:42.503Z,10.40
2022-09-06T02:48:50.944Z,9.20
2022-09-06T02:49:59.254Z,9.90
2022-09-06T02:51:08.504Z,6.90
2022-09-06T02:52:14.462Z,9.00
2022-09-06T02:53:21.480Z,8.70
2022-09-06T02:54:29.380Z,8.70
2022-09-06T02:55:36.658Z,11.50
2022-09-06T02:56:44.135Z,9.80
2022-09-06T02:57:51.143Z,8.60
2022-09-06T02:58:57.329Z,8.80
2022-09-06T03:00:03.589Z,9.70
2022-09-06T03:01:09.793Z,8.30
2022-09-06T03:02:16.028Z,9.20
2022-09-06T03:03:23.374Z,10.50
2022-09-06T03:04:29.328Z,10.00
2022-09-06T03:05:35.507Z,12.40
2022-09-06T03:06:43.978Z,9.40
2022-09-06T03:07:51.149Z,9.50
2022-09-06T03:09:01.314Z,8.50
2022-09-06T03:10:09.230Z,7.20
2022-09-06T03:11:15.554Z,8.10
2022-09-06T03:12:21.419Z,7.30
2022-09-06T03:13:27.105Z,8.60
2022-09-06T03:14:35.483Z,9.50
2022-09-06T03:15:41.416Z,9.30
2022-09-06T03:16:47.433Z,10.20
2022-09-06T03:17:53.475Z,11.00
2022-09-06T03:18:59.581Z,9.20
2022-09-06T03:20:05.887Z,8.80
2022-09-06T03:21:12.086Z,9.90
2022-09-06T03:22:17.738Z,9.60
2022-09-06T03:23:25.322Z,10.60
2022-09-06T03:24:31.198Z,9.20
2022-09-06T03:25:37.327Z,10.30
2022-09-06T03:26:43.369Z,9.80
2022-09-06T03:27:49.617Z,9.90
2022-09-06T03:28:55.392Z,12.10
2022-09-06T03:30:01.598Z,16.60
2022-09-06T03:31:08.231Z,14.10
2022-09-06T03:32:14.371Z,12.30
2022-09-06T03:33:20.528Z,10.80
2022-09-06T03:34:26.859Z,10.10
2022-09-06T03:35:32.726Z,10.60
2022-09-06T03:36:38.941Z,11.00
2022-09-06T03:37:45.191Z,8.80
2022-09-06T03:38:52.000Z,10.40
2022-09-06T03:39:58.117Z,8.50
2022-09-06T03:41:04.083Z,7.20
2022-09-06T03:42:10.080Z,9.50
2022-09-06T03:43:15.783Z,10.10
2022-09-06T03:44:21.773Z,10.10
2022-09-06T03:45:28.209Z,9.50
2022-09-06T03:46:33.886Z,7.60
2022-09-06T03:47:40.063Z,9.50
2022-09-06T03:48:45.857Z,8.10
2022-09-06T03:49:52.427Z,9.30
2022-09-06T03:50:59.243Z,9.10
2022-09-06T03:52:05.124Z,9.60
2022-09-06T03:53:12.057Z,9.70
2022-09-06T03:54:18.076Z,12.20
2022-09-06T03:55:24.085Z,8.10
2022-09-06T03:56:30.036Z,8.80
2022-09-06T03:57:35.988Z,9.00
2022-09-06T03:58:42.069Z,9.70
2022-09-06T03:59:47.845Z,8.90
2022-09-06T04:01:01.938Z,10.80
2022-09-06T04:02:08.731Z,10.90
2022-09-06T04:03:15.429Z,8.20
2022-09-06T04:04:21.286Z,11.00
2022-09-06T04:05:27.507Z,8.70
2022-09-06T04:06:33.384Z,9.60
2022-09-06T04:07:39.889Z,12.00
2022-09-06T04:08:45.630Z,8.90
2022-09-06T04:09:52.273Z,8.90
2022-09-06T04:10:58.388Z,8.40
2022-09-06T04:12:04.221Z,11.40
2022-09-06T04:13:10.333Z,9.20
2022-09-06T04:14:16.288Z,8.60
2022-09-06T04:15:22.453Z,9.90
2022-09-06T04:16:28.729Z,9.90
2022-09-06T04:17:36.432Z,10.00
2022-09-06T04:18:44.136Z,8.90
2022-09-06T04:19:50.628Z,9.70
2022-09-06T04:20:58.103Z,10.20
2022-09-06T04:22:05.158Z,9.10
2022-09-06T04:23:11.549Z,10.20
2022-09-06T04:24:17.696Z,10.20
2022-09-06T04:25:25.231Z,11.10
2022-09-06T04:26:32.663Z,8.40
2022-09-06T04:27:39.841Z,9.90
2022-09-06T04:28:47.150Z,9.30
2022-09-06T04:29:54.069Z,11.30
2022-09-06T04:31:04.900Z,10.00
2022-09-06T04:32:13.105Z,11.20
2022-09-06T04:33:19.552Z,12.70
2022-09-06T04:34:25.850Z,13.40
2022-09-06T04:35:33.343Z,9.70
2022-09-06T04:36:40.144Z,9.80
2022-09-06T04:37:47.230Z,10.30
2022-09-06T04:38:55.705Z,10.20
2022-09-06T04:40:02.491Z,13.50
2022-09-06T04:41:09.164Z,9.00
2022-09-06T04:42:15.352Z,13.60
2022-09-06T04:43:22.635Z,10.80
2022-09-06T04:44:30.006Z,11.20
2022-09-06T04:45:40.013Z,10.10
2022-09-06T04:46:46.610Z,10.90
2022-09-06T04:47:53.388Z,11.00
2022-09-06T04:49:02.791Z,11.80
2022-09-06T04:50:11.368Z,10.40
2022-09-06T04:51:17.259Z,12.40
2022-09-06T04:52:25.071Z,12.80
2022-09-06T04:53:35.643Z,13.80
2022-09-06T04:54:44.333Z,9.30
2022-09-06T04:55:51.718Z,10.00
2022-09-06T04:56:59.270Z,12.30
2022-09-06T04:58:07.310Z,11.70
2022-09-06T04:59:13.450Z,11.90
2022-09-06T05:00:21.020Z,11.60
2022-09-06T05:01:28.160Z,10.30
2022-09-06T05:02:34.808Z,11.20
2022-09-06T05:03:42.720Z,10.00
2022-09-06T05:04:49.640Z,10.10
2022-09-06T05:06:06.189Z,11.00
2022-09-06T05:07:12.280Z,13.60
2022-09-06T05:08:18.538Z,14.70
2022-09-06T05:09:26.023Z,10.50
2022-09-06T05:10:32.993Z,11.80
2022-09-06T05:11:39.935Z,11.20
2022-09-06T05:12:53.371Z,11.30
2022-09-06T05:14:00.266Z,12.70
2022-09-06T05:15:06.595Z,10.50
2022-09-06T05:16:12.924Z,15.30
2022-09-06T05:17:19.794Z,13.30
2022-09-06T05:18:26.334Z,14.00
2022-09-06T05:19:33.779Z,9.40
2022-09-06T05:20:41.701Z,9.00
2022-09-06T05:21:49.230Z,12.10
2022-09-06T05:22:57.017Z,12.20
2022-09-06T05:24:04.159Z,9.80
2022-09-06T05:25:10.607Z,12.20
2022-09-06T05:26:17.609Z,11.90
2022-09-06T05:27:25.319Z,12.40
2022-09-06T05:28:32.419Z,13.20
2022-09-06T05:29:38.958Z,10.20
2022-09-06T05:30:46.704Z,9.50
2022-09-06T05:31:53.759Z,13.00
2022-09-06T05:33:00.929Z,13.00
2022-09-06T05:34:07.621Z,8.80
2022-09-06T05:35:13.930Z,11.90
2022-09-06T05:36:20.607Z,10.10
2022-09-06T05:37:28.720Z,10.50
2022-09-06T05:38:35.501Z,10.80
2022-09-06T05:39:43.481Z,8.60
2022-09-06T05:40:53.330Z,9.90
2022-09-06T05:42:01.543Z,10.30
2022-09-06T05:43:07.765Z,12.30
2022-09-06T05:44:13.893Z,10.00
2022-09-06T05:45:20.505Z,9.70
2022-09-06T05:46:27.057Z,12.60
2022-09-06T05:47:35.871Z,9.10
2022-09-06T05:48:42.120Z,12.50
2022-09-06T05:50:01.638Z,10.70
2022-09-06T05:51:24.337Z,12.40
2022-09-06T05:52:39.829Z,13.10
2022-09-06T05:53:47.345Z,13.00
2022-09-06T05:54:53.863Z,11.00
2022-09-06T05:56:00.759Z,11.90
2022-09-06T05:57:07.733Z,12.40
2022-09-06T05:58:14.045Z,9.70
2022-09-06T05:59:20.136Z,11.80
2022-09-06T06:00:26.194Z,10.60
2022-09-06T06:01:31.962Z,11.00
2022-09-06T06:02:37.972Z,12.30
2022-09-06T06:03:44.244Z,8.70
2022-09-06T06:04:50.189Z,10.70
2022-09-06T06:05:56.154Z,14.40
2022-09-06T06:07:02.301Z,13.10
2022-09-06T06:08:08.781Z,10.80
2022-09-06T06:09:14.930Z,13.10
2022-09-06T06:10:20.872Z,13.00
2022-09-06T06:11:27.036Z,13.50
2022-09-06T06:12:32.886Z,13.90
2022-09-06T06:13:40.304Z,10.30
2022-09-06T06:14:46.112Z,13.20
2022-09-06T06:15:52.192Z,12.80
2022-09-06T06:16:58.462Z,11.70
2022-09-06T06:18:04.512Z,12.10
2022-09-06T06:19:10.800Z,12.60
2022-09-06T06:20:16.596Z,11.30
2022-09-06T06:21:23.798Z,13.50
2022-09-06T06:22:29.575Z,13.80
2022-09-06T06:23:35.569Z,11.20
2022-09-06T06:24:42.059Z,14.00
2022-09-06T06:25:48.154Z,12.00
2022-09-06T06:26:54.715Z,12.30
2022-09-06T06:28:00.944Z,11.40
2022-09-06T06:29:10.302Z,13.70
2022-09-06T06:30:18.492Z,11.90
2022-09-06T06:31:24.575Z,15.00
2022-09-06T06:32:30.719Z,11.50
2022-09-06T06:33:39.714Z,12.50
2022-09-06T06:34:45.523Z,14.30
2022-09-06T06:36:07.753Z,10.20
2022-09-06T06:37:14.120Z,13.20
2022-09-06T06:38:20.613Z,14.30
2022-09-06T06:39:27.895Z,14.60
2022-09-06T06:40:34.543Z,11.50
2022-09-06T06:41:41.772Z,15.60
2022-09-06T06:43:05.055Z,15.10
2022-09-06T06:44:11.290Z,11.60
2022-09-06T06:45:17.204Z,13.00
2022-09-06T06:46:24.413Z,14.50
2022-09-06T06:47:30.569Z,12.30
2022-09-06T06:48:36.796Z,16.80
2022-09-06T06:49:43.238Z,14.30
2022-09-06T06:50:48.962Z,12.70
2022-09-06T06:51:54.923Z,17.10
2022-09-06T06:53:00.988Z,14.80
2022-09-06T06:54:07.053Z,11.50
2022-09-06T06:55:13.197Z,12.50
2022-09-06T06:56:22.848Z,16.80
2022-09-06T06:57:28.558Z,17.70
2022-09-06T06:58:35.822Z,15.80
2022-09-06T06:59:42.338Z,15.10
2022-09-06T07:00:48.445Z,16.70
2022-09-06T07:01:54.582Z,15.20
2022-09-06T07:03:01.174Z,15.00
2022-09-06T07:04:08.093Z,11.70
2022-09-06T07:08:24.515Z,13.80
2022-09-06T07:10:58.593Z,14.20
2022-09-06T07:12:04.434Z,14.30
2022-09-06T07:13:10.518Z,16.20
2022-09-06T07:14:19.399Z,11.60
2022-09-06T07:15:25.881Z,10.90
2022-09-06T07:16:32.206Z,11.70
2022-09-06T07:17:38.575Z,14.70
2022-09-06T07:18:46.157Z,12.70
2022-09-06T07:22:46.577Z,16.50
2022-09-06T07:24:09.017Z,13.60
2022-09-06T07:25:21.156Z,15.30
2022-09-06T07:26:30.310Z,13.80
2022-09-06T07:27:51.553Z,17.40
2022-09-06T07:29:03.156Z,12.50
2022-09-06T07:30:09.866Z,16.20
2022-09-06T07:32:43.121Z,11.80
2022-09-06T07:33:52.516Z,10.70
2022-09-06T07:35:02.089Z,10.80
2022-09-06T07:36:08.461Z,16.00
2022-09-06T07:37:14.560Z,13.70
2022-09-06T07:38:20.972Z,19.90
2022-09-06T07:39:27.634Z,13.30
2022-09-06T07:40:33.890Z,12.10
2022-09-06T07:41:40.157Z,13.20
2022-09-06T07:42:46.029Z,15.20
2022-09-06T07:43:55.374Z,14.10
2022-09-06T07:45:01.176Z,14.50
2022-09-06T07:46:11.454Z,12.40
2022-09-06T07:48:46.109Z,12.60
2022-09-06T07:51:22.463Z,11.40
2022-09-06T07:54:13.314Z,13.30
2022-09-06T07:55:26.731Z,15.60
2022-09-06T07:56:32.639Z,16.40
2022-09-06T07:57:38.701Z,12.90
2022-09-06T07:58:44.663Z,13.80
2022-09-06T07:59:50.786Z,14.80
2022-09-06T08:01:34.911Z,12.20
2022-09-06T08:02:41.616Z,14.00
2022-09-06T08:03:47.725Z,15.30
2022-09-06T08:04:54.021Z,23.60
2022-09-06T08:10:02.792Z,17.60
2022-09-06T08:11:08.779Z,21.20
2022-09-06T08:12:14.232Z,17.90
2022-09-06T08:13:20.028Z,14.80
2022-09-06T08:14:25.855Z,17.60
2022-09-06T08:15:33.531Z,14.80
2022-09-06T08:16:39.988Z,13.40
2022-09-06T08:17:48.958Z,15.00
2022-09-06T08:18:55.706Z,15.80
2022-09-06T08:20:01.894Z,13.90
2022-09-06T08:21:14.647Z,11.90
2022-09-06T08:22:21.353Z,15.30
2022-09-06T08:23:27.573Z,10.60
2022-09-06T08:24:36.302Z,18.30
2022-09-06T08:25:42.180Z,16.20
2022-09-06T08:26:48.042Z,13.80
2022-09-06T08:27:54.012Z,15.20
2022-09-06T08:29:04.161Z,13.30
2022-09-06T08:30:10.622Z,13.10
2022-09-06T08:31:17.275Z,13.40
2022-09-06T08:32:23.201Z,15.80
2022-09-06T08:33:29.416Z,12.90
2022-09-06T08:34:35.609Z,12.90
2022-09-06T08:35:41.445Z,14.80
2022-09-06T08:36:47.332Z,15.10
2022-09-06T08:37:54.150Z,17.40
2022-09-06T08:39:05.045Z,14.20
2022-09-06T08:40:11.165Z,15.80
2022-09-06T08:41:23.640Z,14.20
2022-09-06T08:42:30.103Z,15.30
2022-09-06T08:43:35.973Z,17.20
2022-09-06T08:44:56.936Z,17.30
2022-09-06T08:46:04.824Z,16.60
2022-09-06T08:47:14.132Z,17.80
2022-09-06T08:48:20.186Z,15.80
2022-09-06T08:49:27.043Z,18.10
2022-09-06T08:50:32.981Z,17.60
2022-09-06T08:52:00.823Z,13.20
2022-09-06T08:53:17.898Z,13.10
2022-09-06T08:55:03.229Z,19.00
2022-09-06T08:56:29.945Z,15.20
2022-09-06T08:57:57.197Z,14.60
2022-09-06T08:59:08.513Z,14.80
2022-09-06T09:00:14.803Z,12.10
2022-09-06T09:01:24.227Z,15.60
2022-09-06T09:02:30.167Z,17.00
2022-09-06T09:03:40.642Z,18.60
2022-09-06T09:05:01.513Z,13.20
2022-09-06T09:06:09.920Z,16.00
2022-09-06T09:07:24.732Z,18.00
2022-09-06T09:08:57.333Z,14.60
2022-09-06T09:10:05.521Z,14.80
2022-09-06T09:11:16.374Z,18.30
2022-09-06T09:12:23.793Z,16.90
2022-09-06T09:13:40.589Z,18.60
2022-09-06T09:14:48.897Z,13.50
2022-09-06T09:15:55.051Z,15.40
2022-09-06T09:17:05.591Z,17.10
2022-09-06T09:18:11.314Z,15.00
2022-09-06T09:19:17.125Z,14.30
2022-09-06T09:20:23.582Z,12.80
2022-09-06T09:21:31.038Z,15.10
2022-09-06T09:22:37.135Z,13.60
2022-09-06T09:23:43.387Z,12.50
2022-09-06T09:24:49.765Z,15.40
2022-09-06T09:25:56.525Z,17.90
2022-09-06T09:27:11.574Z,13.50
2022-09-06T09:28:18.624Z,15.70
2022-09-06T09:29:28.615Z,15.70
2022-09-06T09:30:50.882Z,13.10
2022-09-06T09:31:57.316Z,11.30
2022-09-06T09:33:03.492Z,16.10
2022-09-06T09:34:13.534Z,13.00
2022-09-06T09:35:34.789Z,14.80
2022-09-06T09:36:40.653Z,13.70
2022-09-06T09:37:48.480Z,14.70
2022-09-06T09:38:59.226Z,15.90
2022-09-06T09:40:06.558Z,18.70
2022-09-06T09:41:25.638Z,14.20
2022-09-06T09:42:38.698Z,16.70
2022-09-06T09:43:56.029Z,13.30
2022-09-06T09:45:03.547Z,14.50
2022-09-06T09:46:18.848Z,18.70
2022-09-06T09:47:34.445Z,15.30
2022-09-06T09:48:41.705Z,16.10
2022-09-06T09:49:47.506Z,13.90
2022-09-06T09:50:53.149Z,15.30
2022-09-06T09:52:10.960Z,13.20
2022-09-06T09:53:18.911Z,15.70
2022-09-06T09:54:36.882Z,16.80
2022-09-06T09:55:43.917Z,17.40
2022-09-06T09:56:56.545Z,15.70
2022-09-06T09:58:03.480Z,15.70
2022-09-06T09:59:30.447Z,16.10
2022-09-06T10:00:40.540Z,13.80
2022-09-06T10:01:46.530Z,13.60
2022-09-06T10:02:52.203Z,14.30
2022-09-06T10:05:39.403Z,13.10
2022-09-06T10:08:12.505Z,16.60
2022-09-06T10:09:25.335Z,17.40
2022-09-06T10:10:34.203Z,14.90
2022-09-06T10:11:41.932Z,15.80
2022-09-06T10:12:47.658Z,18.20
2022-09-06T10:13:53.666Z,18.60
2022-09-06T10:15:02.291Z,16.60
2022-09-06T10:16:12.598Z,16.00
2022-09-06T10:17:31.778Z,14.60
2022-09-06T10:18:38.563Z,14.90
2022-09-06T10:19:46.390Z,18.20
2022-09-06T10:20:57.201Z,13.30
2022-09-06T10:22:11.825Z,14.10
2022-09-06T10:25:31.134Z,14.50
2022-09-06T10:26:56.990Z,16.50
2022-09-06T10:28:18.030Z,15.60
2022-09-06T10:29:57.424Z,17.30
2022-09-06T10:31:28.371Z,15.20
2022-09-06T10:32:44.493Z,13.80
2022-09-06T10:33:51.563Z,16.40
2022-09-06T10:35:07.379Z,16.90
2022-09-06T10:36:13.226Z,15.90
2022-09-06T10:37:38.803Z,17.20
2022-09-06T10:39:14.436Z,14.90
2022-09-06T10:40:42.886Z,12.20
2022-09-06T10:42:13.950Z,11.50
2022-09-06T10:43:20.436Z,18.60
2022-09-06T10:44:36.948Z,16.20
2022-09-06T10:45:48.202Z,15.10
2022-09-06T10:47:03.062Z,14.00
2022-09-06T10:48:40.490Z,13.30
2022-09-06T10:49:49.752Z,14.20
2022-09-06T10:50:57.250Z,16.20
2022-09-06T10:52:04.441Z,13.80
2022-09-06T10:53:18.646Z,15.10
2022-09-06T10:54:26.340Z,13.90
2022-09-06T10:55:33.631Z,14.80
2022-09-06T10:56:48.340Z,13.40
2022-09-06T11:00:47.571Z,17.40
2022-09-06T11:02:11.779Z,12.70
2022-09-06T11:06:22.497Z,14.70
2022-09-06T11:07:38.196Z,13.90
2022-09-06T11:08:47.858Z,15.60
2022-09-06T11:09:57.610Z,16.50
2022-09-06T11:11:08.310Z,15.60
2022-09-06T11:12:14.371Z,16.40
2022-09-06T11:13:21.460Z,20.10
2022-09-06T11:14:27.893Z,18.30
2022-09-06T11:15:44.306Z,13.80
2022-09-06T11:16:58.629Z,14.90
2022-09-06T11:18:34.889Z,15.70
2022-09-06T11:19:47.825Z,13.80
2022-09-06T11:21:15.262Z,16.70
2022-09-06T11:22:37.647Z,20.00
2022-09-06T11:24:04.926Z,16.70
2022-09-06T11:25:37.759Z,16.20
2022-09-06T11:27:04.484Z,14.30
2022-09-06T11:28:14.644Z,15.60
2022-09-06T11:29:27.732Z,14.70
2022-09-06T11:30:35.894Z,20.50
2022-09-06T11:32:49.947Z,18.60
2022-09-06T11:34:05.308Z,15.90
2022-09-06T11:35:23.231Z,15.20
2022-09-06T11:36:52.143Z,16.60
2022-09-06T11:38:06.652Z,17.40
2022-09-06T11:39:12.644Z,17.30
2022-09-06T11:41:43.216Z,15.70
2022-09-06T11:42:53.218Z,17.70
2022-09-06T11:43:59.794Z,17.00
2022-09-06T11:45:22.232Z,16.80
2022-09-06T11:46:37.265Z,15.50
2022-09-06T11:47:45.833Z,14.30
2022-09-06T11:49:33.106Z,19.50
2022-09-06T11:51:02.515Z,13.40
2022-09-06T11:52:47.231Z,14.80
2022-09-06T11:54:17.108Z,15.90
2022-09-06T11:55:47.212Z,14.70
2022-09-06T11:57:02.597Z,14.20
2022-09-06T11:58:32.693Z,15.60
2022-09-06T11:59:45.256Z,14.30
2022-09-06T12:01:17.041Z,16.10
2022-09-06T12:02:41.961Z,13.50
2022-09-06T12:04:07.469Z,16.50
2022-09-06T12:05:26.622Z,16.20
2022-09-06T12:06:42.181Z,13.70
2022-09-06T12:08:12.341Z,12.70
2022-09-06T12:09:37.860Z,14.30
2022-09-06T12:10:48.302Z,14.30
2022-09-06T12:11:54.193Z,16.70
2022-09-06T12:13:00.119Z,17.60
2022-09-06T12:14:33.522Z,16.80
2022-09-06T12:15:54.402Z,16.80
2022-09-06T12:17:05.787Z,14.40
2022-09-06T12:18:11.916Z,14.90
2022-09-06T12:19:52.380Z,15.50
2022-09-06T12:20:58.269Z,13.10
2022-09-06T12:22:04.674Z,14.40
2022-09-06T12:23:10.339Z,18.20
2022-09-06T12:24:45.272Z,18.30
2022-09-06T12:25:53.395Z,22.40
2022-09-06T12:27:34.916Z,20.20
2022-09-06T12:28:53.374Z,21.90
2022-09-06T12:30:06.594Z,20.10
2022-09-06T12:31:41.751Z,17.70
2022-09-06T12:32:52.605Z,19.80
2022-09-06T12:33:58.948Z,19.40
2022-09-06T12:36:34.478Z,16.10
2022-09-06T12:37:52.525Z,18.90
2022-09-06T12:39:10.353Z,13.80
2022-09-06T12:40:16.985Z,14.80
2022-09-06T12:41:23.494Z,20.70
2022-09-06T12:42:30.031Z,19.50
2022-09-06T12:43:37.471Z,18.50
2022-09-06T12:44:49.791Z,15.80
2022-09-06T12:45:56.752Z,19.00
2022-09-06T12:47:16.713Z,19.70
2022-09-06T12:48:30.674Z,16.00
2022-09-06T12:49:37.695Z,20.30
2022-09-06T12:50:45.362Z,20.30
2022-09-06T12:51:52.357Z,15.90
2022-09-06T12:53:04.038Z,15.40
2022-09-06T12:54:24.311Z,14.90
2022-09-06T12:55:38.574Z,14.40
2022-09-06T12:56:46.298Z,18.60
2022-09-06T12:57:58.646Z,17.00
2022-09-06T12:59:25.655Z,18.40
2022-09-06T13:00:41.936Z,17.30
2022-09-06T13:02:19.980Z,16.10
2022-09-06T13:03:34.641Z,17.90
2022-09-06T13:04:54.815Z,17.40
2022-09-06T13:06:02.089Z,16.90
2022-09-06T13:07:10.381Z,14.10
2022-09-06T13:08:25.271Z,16.40
2022-09-06T13:09:33.123Z,18.70
2022-09-06T13:10:40.107Z,14.40
2022-09-06T13:11:52.619Z,18.30
2022-09-06T13:13:00.110Z,16.70
2022-09-06T13:14:14.589Z,20.80
2022-09-06T13:15:26.418Z,16.40
2022-09-06T13:16:37.742Z,15.70
2022-09-06T13:17:45.432Z,15.60
2022-09-06T13:18:52.646Z,16.60
2022-09-06T13:20:03.676Z,17.30
2022-09-06T13:21:16.455Z,16.40
2022-09-06T13:22:42.236Z,19.20
2022-09-06T13:23:51.694Z,16.20
2022-09-06T13:24:58.263Z,18.70
2022-09-06T13:26:05.100Z,18.40
2022-09-06T13:27:29.909Z,25.40
2022-09-06T13:28:37.493Z,18.50
2022-09-06T13:30:00.521Z,18.00
2022-09-06T13:31:19.198Z,17.80
2022-09-06T13:32:25.564Z,15.70
2022-09-06T13:33:32.798Z,21.60
2022-09-06T13:34:39.459Z,20.60
2022-09-06T13:35:46.077Z,21.40
2022-09-06T13:36:55.029Z,21.30
2022-09-06T13:38:32.026Z,25.50
2022-09-06T13:39:42.648Z,21.60
2022-09-06T13:41:11.000Z,18.50
2022-09-06T13:42:33.729Z,16.70
2022-09-06T13:43:46.549Z,18.50
2022-09-06T13:44:53.623Z,18.50
2022-09-06T13:46:06.048Z,18.40
2022-09-06T13:47:12.382Z,20.50
2022-09-06T13:48:29.022Z,19.00
2022-09-06T13:49:37.844Z,18.30
2022-09-06T13:50:44.567Z,13.10
2022-09-06T13:51:53.439Z,20.20
2022-09-06T13:53:00.424Z,17.70
2022-09-06T13:54:15.087Z,21.40
2022-09-06T13:55:21.126Z,21.00
2022-09-06T13:56:28.249Z,18.30
2022-09-06T13:57:35.465Z,27.90
2022-09-06T13:58:42.367Z,20.70
2022-09-06T13:59:49.607Z,19.30
2022-09-06T14:00:56.418Z,15.70
2022-09-06T14:02:10.416Z,19.90
2022-09-06T14:03:23.415Z,19.20
2022-09-06T14:04:30.026Z,18.20
2022-09-06T14:05:39.634Z,23.00
2022-09-06T14:06:47.977Z,18.20
2022-09-06T14:07:55.455Z,23.00
2022-09-06T14:09:07.468Z,21.30
2022-09-06T14:10:15.584Z,20.30
2022-09-06T14:11:21.735Z,16.90
2022-09-06T14:12:28.608Z,18.90
2022-09-06T14:13:35.524Z,17.00
2022-09-06T14:14:42.324Z,22.40
2022-09-06T14:15:49.539Z,18.90
2022-09-06T14:16:56.535Z,21.20
2022-09-06T14:18:03.358Z,21.20
2022-09-06T14:19:14.571Z,17.90
2022-09-06T14:20:22.317Z,19.70
2022-09-06T14:21:28.996Z,15.40
2022-09-06T14:22:40.002Z,19.00
2022-09-06T14:23:53.282Z,18.20
2022-09-06T14:25:00.042Z,27.80
2022-09-06T14:26:08.090Z,23.90
2022-09-06T14:27:14.807Z,21.50
2022-09-06T14:28:22.403Z,20.60
2022-09-06T14:29:29.037Z,20.20
2022-09-06T14:30:35.859Z,18.40
2022-09-06T14:31:44.157Z,18.90
2022-09-06T14:32:51.634Z,18.60
2022-09-06T14:33:59.493Z,19.90
2022-09-06T14:35:07.606Z,25.20
2022-09-06T14:36:18.708Z,18.60
2022-09-06T14:37:24.874Z,16.00
2022-09-06T14:38:31.501Z,19.30
2022-09-06T14:39:38.494Z,21.30
2022-09-06T14:40:45.600Z,20.60
2022-09-06T14:41:53.669Z,22.40
2022-09-06T14:43:00.066Z,20.30
2022-09-06T14:44:06.488Z,20.80
2022-09-06T14:45:12.687Z,22.50
2022-09-06T14:46:19.339Z,16.20
2022-09-06T14:47:25.350Z,22.00
2022-09-06T14:48:32.110Z,22.20
2022-09-06T14:49:38.060Z,24.30
2022-09-06T14:50:44.111Z,20.80
2022-09-06T14:51:50.074Z,17.60
2022-09-06T14:52:55.853Z,17.30
2022-09-06T14:54:07.563Z,14.50
2022-09-06T14:55:13.302Z,20.60
2022-09-06T14:56:19.550Z,26.90
2022-09-06T14:57:25.667Z,18.00
2022-09-06T14:58:34.592Z,18.50
2022-09-06T14:59:40.579Z,27.50
2022-09-06T15:00:47.158Z,20.30
2022-09-06T15:01:54.099Z,19.90
2022-09-06T15:03:00.488Z,22.00
2022-09-06T15:04:08.244Z,18.40
2022-09-06T15:05:14.588Z,18.20
2022-09-06T15:06:26.580Z,21.30
2022-09-06T15:07:34.317Z,16.10
2022-09-06T15:08:41.282Z,19.50
2022-09-06T15:09:48.460Z,17.70
2022-09-06T15:10:56.695Z,21.20
2022-09-06T15:12:04.023Z,17.30
2022-09-06T15:13:11.621Z,22.70
2022-09-06T15:14:23.043Z,21.30
2022-09-06T15:15:30.172Z,16.90
2022-09-06T15:16:37.495Z,19.10
2022-09-06T15:17:43.785Z,20.30
2022-09-06T15:18:51.474Z,21.00
2022-09-06T15:20:00.572Z,18.60
2022-09-06T15:21:15.020Z,16.50
2022-09-06T15:22:22.429Z,13.00
2022-09-06T15:23:29.067Z,20.30
2022-09-06T15:24:41.722Z,17.20
2022-09-06T15:25:53.006Z,21.70
2022-09-06T15:27:00.472Z,22.90
2022-09-06T15:28:07.619Z,15.70
2022-09-06T15:29:13.546Z,16.60
2022-09-06T15:30:20.199Z,17.40
2022-09-06T15:31:26.028Z,14.20
2022-09-06T15:32:32.434Z,14.60
2022-09-06T15:33:39.023Z,19.20
2022-09-06T15:34:48.628Z,17.50
2022-09-06T15:35:58.145Z,17.80
2022-09-06T15:37:04.840Z,20.00
2022-09-06T15:38:11.085Z,16.50
2022-09-06T15:39:17.665Z,23.90
2022-09-06T15:40:25.032Z,21.70
2022-09-06T15:41:32.972Z,15.30
2022-09-06T15:42:40.198Z,16.60
2022-09-06T15:43:50.060Z,17.50
2022-09-06T15:44:56.856Z,16.20
2022-09-06T15:46:02.958Z,17.50
2022-09-06T15:47:09.867Z,17.90
2022-09-06T15:48:16.561Z,18.60
2022-09-06T15:49:27.867Z,17.80